Flight Track Log - Related Links

Times and Time Zones

All times are in EDT time to prevent confusion due to time zone crossing. See the N516QS flight status page for this flight to view local times or setup timezone preferences in your user account.

Time Position Orientation Groundspeed Altitude Reporting Facility
EDT Latitude Longitude Course Direction KTS MPH feet Rate Location/Type
Mon 01:27:04 PM 40.7333 -74.4167 105° East 222 255 3,200  Level New York TRACON
Mon 01:28:04 PM 40.7167 -74.3333 105° East 277 319 5,200 1,400 Climbing New York TRACON
Mon 01:29:04 PM 40.7667 -74.2667 45° Northeast 291 335 6,000 381 Climbing New York TRACON
Mon 01:30:10 PM 40.8500 -74.2333 17° North 274 315 6,000  Level New York TRACON
Mon 01:31:04 PM 40.9167 -74.2167 11° North 270 311 6,000  Level New York TRACON
Mon 01:32:04 PM 40.9833 -74.1833 21° North 267 307 6,000  Level New York TRACON
Mon 01:33:04 PM 41.0500 -74.1500 21° North 269 310 6,000 550 Level New York TRACON
Mon 01:34:04 PM 41.1000 -74.0667 51° Northeast 293 337 7,100 1,350 Climbing New York TRACON
Mon 01:35:04 PM 41.1333 -73.9667 66° East 297 342 8,700 950 Climbing New York TRACON
Mon 01:36:04 PM 41.1667 -73.8667 66° East 306 352 9,000 150 Climbing New York TRACON
Mon 01:37:04 PM 41.2167 -73.7667 56° Northeast 306 352 9,000  Level New York TRACON
Mon 01:38:04 PM 41.2500 -73.6667 66° East 297 342 9,000  Level New York TRACON
Mon 01:39:04 PM 41.2833 -73.5833 62° Northeast 298 343 9,000  Level New York TRACON
Mon 01:40:04 PM 41.3167 -73.4833 66° East 299 344 9,000  Level New York TRACON
Mon 01:41:04 PM 41.3500 -73.3833 66° East 301 346 9,000  Level New York TRACON
Mon 01:41:56 PM 41.3800 -73.2978 65° Northeast 296 341 9,000  Level Boston Center
Mon 01:42:32 PM 41.4014 -73.2372 65° Northeast 296 341 9,000  Level Boston Center
Mon 01:43:32 PM 41.4353 -73.1378 66° East 297 342 9,000  Level Boston Center
Mon 01:44:33 PM 41.4714 -73.0386 64° Northeast 297 342 9,000  Level Boston Center
Mon 01:45:33 PM 41.4969 -72.9250 73° East 305 351 9,000  Level Boston Center
Mon 01:46:37 PM 41.5161 -72.8172 77° East 304 350 9,000  Level Boston Center
Mon 01:47:37 PM 41.5311 -72.7036 80° East 302 348 9,000  Level Boston Center
Mon 01:48:38 PM 41.5500 -72.5953 77° East 302 348 9,000  Level Boston Center
Mon 01:49:39 PM 41.5667 -72.4872 78° East 301 346 9,000  Level Boston Center
Mon 01:50:40 PM 41.5833 -72.3736 79° East 300 345 9,000  Level Boston Center
Mon 01:51:16 PM 41.5939 -72.3069 78° East 300 345 9,000  Level Boston Center
Mon 01:51:46 PM 41.6019 -72.2486 80° East 301 346 9,000  Level Boston Center
Mon 01:52:47 PM 41.6186 -72.1431 78° East 299 344 9,000 -694 Level Boston Center
Mon 01:53:47 PM 41.6328 -72.0344 80° East 295 339 7,600 -1,474 Descending Boston Center
Mon 01:54:41 PM 41.6489 -71.9372 77° East 288 331 6,200 -1,513 Descending Boston Center
Mon 01:55:42 PM 41.6464 -71.8372 92° East 282 325 4,700 -1,488 Descending Boston Center
Mon 01:56:42 PM 41.6083 -71.7378 117° Southeast 277 319 3,200 -823 Descending Boston Center
Mon 01:57:46 PM 41.5808 -71.6575 115° Southeast 235 270 3,000 -393 Descending Boston Center
Mon 01:58:44 PM 41.5553 -71.5800 114° Southeast 225 259 2,400 -536 Descending Boston Center
Mon 01:59:38 PM 41.5381 -71.5111 108° East 196 226 2,000 -387 Descending Boston Center
Mon 02:00:48 PM 41.5353 -71.4389 93° East 172 198 1,600 -600 Descending Boston Center
Mon 02:01:48 PM 41.5619 -71.3886 55° Northeast 153 176 700 48 Descending Boston Center
Mon 02:46:32 PM 41.6669 -71.4925 321° Northwest 240 276 3,800 157 Climbing Boston Center
Mon 02:47:39 PM 41.7197 -71.5556 318° Northwest 267 307 7,900 2,929 Climbing Boston Center
Mon 02:48:39 PM 41.7828 -71.6328 318° Northwest 273 314 10,000 1,785 Climbing Boston Center
Mon 02:49:40 PM 41.8481 -71.7294 312° West 312 359 11,500 2,390 Climbing Boston Center
Mon 02:50:37 PM 41.8883 -71.8572 293° West 363 418 14,700 2,974 Climbing Boston Center
Mon 02:51:37 PM 41.9306 -71.9908 293° West 387 445 17,300 2,727 Climbing Boston Center
Mon 02:52:38 PM 41.9747 -72.1331 293° West 404 465 20,200 2,754 Climbing Boston Center
Mon 02:53:39 PM 42.0208 -72.2753 294° West 415 478 22,900 2,727 Climbing Boston Center
Mon 02:54:39 PM 42.0669 -72.4178 294° West 415 478 25,700 2,441 Climbing Boston Center
Mon 02:55:37 PM 42.1128 -72.5633 293° West 415 478 27,700 1,932 Climbing Boston Center
Mon 02:56:37 PM 42.1333 -72.7172 280° West 415 478 29,500 2,231 Climbing Boston Center
Mon 02:57:38 PM 42.0808 -72.8542 243° Southwest 390 449 32,200 2,479 Climbing Boston Center
Mon 02:58:38 PM 42.0158 -72.9683 233° Southwest 389 448 34,500 2,200 Climbing Boston Center
Mon 02:59:38 PM 41.9525 -73.0736 231° Southwest 395 455 36,600 1,934 Climbing Boston Center
Mon 03:00:39 PM 41.8647 -73.1508 213° Southwest 389 448 38,400 1,563 Climbing Boston Center
Mon 03:01:37 PM 41.7703 -73.2278 211° Southwest 383 441 39,700 1,220 Climbing Boston Center
Mon 03:02:37 PM 41.6822 -73.2989 211° Southwest 389 448 40,800 942 Climbing Boston Center
Mon 03:03:38 PM 41.6044 -73.3950 223° Southwest 389 448 41,600 738 Climbing Boston Center
Mon 03:04:39 PM 41.5367 -73.5022 230° Southwest 379 436 42,300 689 Climbing Boston Center

Login

Don't have an account? Register now (free) for customized features, flight alerts, and more!